sensor_id;sensor_type;location;lat;lon;timestamp;temperature;humidity
18662;DHT22;61528;49.456;11.098;2024-01-10T00:01:59;-3.40;93.60
18662;DHT22;61528;49.456;11.098;2024-01-10T00:04:24;-3.40;96.20
18662;DHT22;61528;49.456;11.098;2024-01-10T00:06:50;-3.40;96.80
18662;DHT22;61528;49.456;11.098;2024-01-10T00:09:16;-3.50;90.00
18662;DHT22;61528;49.456;11.098;2024-01-10T00:11:42;-3.40;90.40
18662;DHT22;61528;49.456;11.098;2024-01-10T00:14:07;-3.40;90.50
18662;DHT22;61528;49.456;11.098;2024-01-10T00:16:34;-3.50;90.70
18662;DHT22;61528;49.456;11.098;2024-01-10T00:19:00;-3.50;91.00
18662;DHT22;61528;49.456;11.098;2024-01-10T00:21:26;-3.60;91.20
18662;DHT22;61528;49.456;11.098;2024-01-10T00:23:52;-3.60;92.90
18662;DHT22;61528;49.456;11.098;2024-01-10T00:26:18;-3.50;91.80
18662;DHT22;61528;49.456;11.098;2024-01-10T00:28:44;-3.40;93.40
18662;DHT22;61528;49.456;11.098;2024-01-10T00:31:15;-3.30;94.10
18662;DHT22;61528;49.456;11.098;2024-01-10T00:33:40;-3.50;93.30
18662;DHT22;61528;49.456;11.098;2024-01-10T00:36:06;-3.60;91.00
18662;DHT22;61528;49.456;11.098;2024-01-10T00:38:32;-3.60;91.00
18662;DHT22;61528;49.456;11.098;2024-01-10T00:40:58;-3.60;91.00
18662;DHT22;61528;49.456;11.098;2024-01-10T00:43:24;-3.50;91.00
18662;DHT22;61528;49.456;11.098;2024-01-10T00:45:50;-3.50;91.00
18662;DHT22;61528;49.456;11.098;2024-01-10T00:48:16;-3.50;91.10
18662;DHT22;61528;49.456;11.098;2024-01-10T00:50:46;-3.50;91.20
18662;DHT22;61528;49.456;11.098;2024-01-10T00:53:11;-3.60;91.30
18662;DHT22;61528;49.456;11.098;2024-01-10T00:55:37;-3.60;91.50
18662;DHT22;61528;49.456;11.098;2024-01-10T00:58:03;-3.60;91.50
18662;DHT22;61528;49.456;11.098;2024-01-10T01:00:31;-3.60;91.70
18662;DHT22;61528;49.456;11.098;2024-01-10T01:02:57;-3.60;91.70
18662;DHT22;61528;49.456;11.098;2024-01-10T01:05:23;-3.70;91.70
18662;DHT22;61528;49.456;11.098;2024-01-10T01:07:49;-3.70;91.80
18662;DHT22;61528;49.456;11.098;2024-01-10T01:10:15;-3.70;91.90
18662;DHT22;61528;49.456;11.098;2024-01-10T01:12:41;-3.60;92.10
18662;DHT22;61528;49.456;11.098;2024-01-10T01:15:07;-3.70;92.30
18662;DHT22;61528;49.456;11.098;2024-01-10T01:17:33;-3.70;92.70
18662;DHT22;61528;49.456;11.098;2024-01-10T01:19:59;-3.70;94.40
18662;DHT22;61528;49.456;11.098;2024-01-10T01:22:26;-3.70;92.20
18662;DHT22;61528;49.456;11.098;2024-01-10T01:24:52;-3.70;92.30
18662;DHT22;61528;49.456;11.098;2024-01-10T01:27:18;-3.80;92.50
18662;DHT22;61528;49.456;11.098;2024-01-10T01:29:43;-3.70;92.60
18662;DHT22;61528;49.456;11.098;2024-01-10T01:32:09;-3.70;92.60
18662;DHT22;61528;49.456;11.098;2024-01-10T01:34:35;-3.70;92.70
18662;DHT22;61528;49.456;11.098;2024-01-10T01:37:01;-3.70;92.90
18662;DHT22;61528;49.456;11.098;2024-01-10T01:39:26;-3.70;93.00
18662;DHT22;61528;49.456;11.098;2024-01-10T01:41:53;-3.70;93.30
18662;DHT22;61528;49.456;11.098;2024-01-10T01:44:19;-3.70;93.50
18662;DHT22;61528;49.456;11.098;2024-01-10T01:46:46;-3.60;96.80
18662;DHT22;61528;49.456;11.098;2024-01-10T01:49:12;-3.60;97.60
18662;DHT22;61528;49.456;11.098;2024-01-10T01:51:39;-3.60;97.20
18662;DHT22;61528;49.456;11.098;2024-01-10T01:54:07;-3.60;93.60
18662;DHT22;61528;49.456;11.098;2024-01-10T01:56:36;-3.60;93.70
18662;DHT22;61528;49.456;11.098;2024-01-10T01:59:02;-3.60;93.60
18662;DHT22;61528;49.456;11.098;2024-01-10T02:01:29;-3.60;93.70
18662;DHT22;61528;49.456;11.098;2024-01-10T02:03:55;-3.50;93.70
18662;DHT22;61528;49.456;11.098;2024-01-10T02:06:21;-3.60;93.70
18662;DHT22;61528;49.456;11.098;2024-01-10T02:08:47;-3.60;93.70
18662;DHT22;61528;49.456;11.098;2024-01-10T02:11:13;-3.50;93.70
18662;DHT22;61528;49.456;11.098;2024-01-10T02:13:39;-3.50;93.80
18662;DHT22;61528;49.456;11.098;2024-01-10T02:16:06;-3.50;93.90
18662;DHT22;61528;49.456;11.098;2024-01-10T02:18:33;-3.60;93.80
18662;DHT22;61528;49.456;11.098;2024-01-10T02:21:01;-3.70;93.90
18662;DHT22;61528;49.456;11.098;2024-01-10T02:23:26;-3.70;94.10
18662;DHT22;61528;49.456;11.098;2024-01-10T02:25:52;-3.70;94.30
18662;DHT22;61528;49.456;11.098;2024-01-10T02:28:18;-3.60;94.60
18662;DHT22;61528;49.456;11.098;2024-01-10T02:30:44;-3.60;94.50
18662;DHT22;61528;49.456;11.098;2024-01-10T02:33:10;-3.70;94.50
18662;DHT22;61528;49.456;11.098;2024-01-10T02:35:36;-3.70;94.60
18662;DHT22;61528;49.456;11.098;2024-01-10T02:38:02;-3.70;94.70
18662;DHT22;61528;49.456;11.098;2024-01-10T02:40:28;-3.70;94.90
18662;DHT22;61528;49.456;11.098;2024-01-10T02:42:54;-3.70;95.00
18662;DHT22;61528;49.456;11.098;2024-01-10T02:45:20;-3.80;95.00
18662;DHT22;61528;49.456;11.098;2024-01-10T02:47:46;-3.70;95.20
18662;DHT22;61528;49.456;11.098;2024-01-10T02:50:12;-3.70;95.20
18662;DHT22;61528;49.456;11.098;2024-01-10T02:52:38;-3.70;95.10
18662;DHT22;61528;49.456;11.098;2024-01-10T02:55:04;-3.60;95.20
18662;DHT22;61528;49.456;11.098;2024-01-10T02:57:30;-3.70;95.10
18662;DHT22;61528;49.456;11.098;2024-01-10T02:59:55;-3.80;95.30
18662;DHT22;61528;49.456;11.098;2024-01-10T03:02:21;-3.80;95.30
18662;DHT22;61528;49.456;11.098;2024-01-10T03:04:49;-3.90;95.40
18662;DHT22;61528;49.456;11.098;2024-01-10T03:07:15;-3.90;95.50
18662;DHT22;61528;49.456;11.098;2024-01-10T03:09:41;-4.00;95.80
18662;DHT22;61528;49.456;11.098;2024-01-10T03:12:07;-3.90;95.80
18662;DHT22;61528;49.456;11.098;2024-01-10T03:14:33;-3.90;95.80
18662;DHT22;61528;49.456;11.098;2024-01-10T03:17:00;-3.90;96.00
18662;DHT22;61528;49.456;11.098;2024-01-10T03:19:25;-3.90;95.90
18662;DHT22;61528;49.456;11.098;2024-01-10T03:21:51;-3.90;96.20
18662;DHT22;61528;49.456;11.098;2024-01-10T03:24:17;-3.90;96.20
18662;DHT22;61528;49.456;11.098;2024-01-10T03:26:43;-3.90;96.30
18662;DHT22;61528;49.456;11.098;2024-01-10T03:29:09;-4.00;96.40
18662;DHT22;61528;49.456;11.098;2024-01-10T03:31:34;-4.00;96.50
18662;DHT22;61528;49.456;11.098;2024-01-10T03:34:00;-4.00;96.60
18662;DHT22;61528;49.456;11.098;2024-01-10T03:36:26;-4.00;96.70
18662;DHT22;61528;49.456;11.098;2024-01-10T03:38:52;-3.90;96.90
18662;DHT22;61528;49.456;11.098;2024-01-10T03:41:19;-3.90;96.90
18662;DHT22;61528;49.456;11.098;2024-01-10T03:43:46;-4.00;96.80
18662;DHT22;61528;49.456;11.098;2024-01-10T03:46:13;-4.00;96.90
18662;DHT22;61528;49.456;11.098;2024-01-10T03:48:39;-4.00;97.20
18662;DHT22;61528;49.456;11.098;2024-01-10T03:51:17;-4.00;97.20
18662;DHT22;61528;49.456;11.098;2024-01-10T03:53:43;-4.00;97.30
18662;DHT22;61528;49.456;11.098;2024-01-10T03:56:09;-4.00;97.40
18662;DHT22;61528;49.456;11.098;2024-01-10T03:58:35;-4.00;97.50
18662;DHT22;61528;49.456;11.098;2024-01-10T04:01:07;-4.00;97.60
18662;DHT22;61528;49.456;11.098;2024-01-10T04:03:34;-4.00;97.50
18662;DHT22;61528;49.456;11.098;2024-01-10T04:06:01;-4.10;97.50
18662;DHT22;61528;49.456;11.098;2024-01-10T04:08:27;-4.10;97.70
18662;DHT22;61528;49.456;11.098;2024-01-10T04:10:53;-4.10;97.80
18662;DHT22;61528;49.456;11.098;2024-01-10T04:13:18;-4.10;97.90
18662;DHT22;61528;49.456;11.098;2024-01-10T04:15:44;-4.10;98.00
18662;DHT22;61528;49.456;11.098;2024-01-10T04:18:10;-4.20;98.40
18662;DHT22;61528;49.456;11.098;2024-01-10T04:20:36;-4.20;98.20
18662;DHT22;61528;49.456;11.098;2024-01-10T04:23:02;-4.20;98.30
18662;DHT22;61528;49.456;11.098;2024-01-10T04:25:28;-4.20;98.20
18662;DHT22;61528;49.456;11.098;2024-01-10T04:27:54;-4.20;98.40
18662;DHT22;61528;49.456;11.098;2024-01-10T04:30:21;-4.30;98.40
18662;DHT22;61528;49.456;11.098;2024-01-10T04:32:47;-4.20;98.80
18662;DHT22;61528;49.456;11.098;2024-01-10T04:35:13;-4.20;98.90
18662;DHT22;61528;49.456;11.098;2024-01-10T04:37:39;-4.10;99.00
18662;DHT22;61528;49.456;11.098;2024-01-10T04:40:05;-4.20;99.20
18662;DHT22;61528;49.456;11.098;2024-01-10T04:42:31;-4.20;99.10
18662;DHT22;61528;49.456;11.098;2024-01-10T04:44:57;-4.30;99.30
18662;DHT22;61528;49.456;11.098;2024-01-10T04:47:23;-4.30;99.40
18662;DHT22;61528;49.456;11.098;2024-01-10T04:49:49;-4.20;99.50
18662;DHT22;61528;49.456;11.098;2024-01-10T04:52:15;-4.20;99.60
18662;DHT22;61528;49.456;11.098;2024-01-10T04:54:41;-4.30;99.70
18662;DHT22;61528;49.456;11.098;2024-01-10T04:57:07;-4.30;99.30
18662;DHT22;61528;49.456;11.098;2024-01-10T04:59:33;-4.30;99.50
18662;DHT22;61528;49.456;11.098;2024-01-10T05:01:59;-4.30;99.60
18662;DHT22;61528;49.456;11.098;2024-01-10T05:04:25;-4.40;99.90
18662;DHT22;61528;49.456;11.098;2024-01-10T05:06:51;-4.60;98.90
18662;DHT22;61528;49.456;11.098;2024-01-10T05:09:17;-4.50;99.30
18662;DHT22;61528;49.456;11.098;2024-01-10T05:11:43;-4.50;99.40
18662;DHT22;61528;49.456;11.098;2024-01-10T05:14:12;-4.40;99.40
18662;DHT22;61528;49.456;11.098;2024-01-10T05:16:38;-4.40;99.40
18662;DHT22;61528;49.456;11.098;2024-01-10T05:19:04;-4.40;99.50
18662;DHT22;61528;49.456;11.098;2024-01-10T05:21:31;-4.40;99.60
18662;DHT22;61528;49.456;11.098;2024-01-10T05:23:57;-4.50;99.90
18662;DHT22;61528;49.456;11.098;2024-01-10T05:26:23;-4.50;99.70
18662;DHT22;61528;49.456;11.098;2024-01-10T05:28:49;-4.50;99.70
18662;DHT22;61528;49.456;11.098;2024-01-10T05:31:16;-4.50;99.90
18662;DHT22;61528;49.456;11.098;2024-01-10T05:33:42;-4.50;99.90
18662;DHT22;61528;49.456;11.098;2024-01-10T05:36:09;-4.50;99.90
18662;DHT22;61528;49.456;11.098;2024-01-10T05:38:37;-4.50;99.90
18662;DHT22;61528;49.456;11.098;2024-01-10T05:41:03;-4.50;99.90
18662;DHT22;61528;49.456;11.098;2024-01-10T05:43:29;-4.50;99.90
18662;DHT22;61528;49.456;11.098;2024-01-10T05:45:55;-4.40;99.90
18662;DHT22;61528;49.456;11.098;2024-01-10T05:48:21;-4.50;99.90
18662;DHT22;61528;49.456;11.098;2024-01-10T05:50:47;-4.50;99.90
18662;DHT22;61528;49.456;11.098;2024-01-10T05:53:12;-4.50;99.90
18662;DHT22;61528;49.456;11.098;2024-01-10T05:55:43;-4.50;99.90
18662;DHT22;61528;49.456;11.098;2024-01-10T05:58:10;-4.50;99.90
18662;DHT22;61528;49.456;11.098;2024-01-10T06:00:36;-4.50;99.90
18662;DHT22;61528;49.456;11.098;2024-01-10T06:03:02;-4.50;99.90
18662;DHT22;61528;49.456;11.098;2024-01-10T06:05:28;-4.40;99.90
18662;DHT22;61528;49.456;11.098;2024-01-10T06:07:53;-4.40;99.90
18662;DHT22;61528;49.456;11.098;2024-01-10T06:10:19;-4.50;99.90
18662;DHT22;61528;49.456;11.098;2024-01-10T06:12:45;-4.50;99.90
18662;DHT22;61528;49.456;11.098;2024-01-10T06:15:10;-4.50;99.90
18662;DHT22;61528;49.456;11.098;2024-01-10T06:17:36;-4.50;99.90
18662;DHT22;61528;49.456;11.098;2024-01-10T06:20:04;-4.50;99.90
18662;DHT22;61528;49.456;11.098;2024-01-10T06:22:30;-4.50;99.90
18662;DHT22;61528;49.456;11.098;2024-01-10T06:24:55;-4.50;99.90
18662;DHT22;61528;49.456;11.098;2024-01-10T06:27:21;-4.50;99.90
18662;DHT22;61528;49.456;11.098;2024-01-10T06:29:47;-4.60;99.90
18662;DHT22;61528;49.456;11.098;2024-01-10T06:32:13;-4.60;99.90
18662;DHT22;61528;49.456;11.098;2024-01-10T06:34:40;-4.70;99.90
18662;DHT22;61528;49.456;11.098;2024-01-10T06:37:05;-4.60;99.90
18662;DHT22;61528;49.456;11.098;2024-01-10T06:39:33;-4.60;99.90
18662;DHT22;61528;49.456;11.098;2024-01-10T06:41:59;-4.60;99.90
18662;DHT22;61528;49.456;11.098;2024-01-10T06:44:25;-4.60;99.90
18662;DHT22;61528;49.456;11.098;2024-01-10T06:46:53;-4.30;99.90
18662;DHT22;61528;49.456;11.098;2024-01-10T06:49:19;-4.70;99.90
18662;DHT22;61528;49.456;11.098;2024-01-10T06:51:45;-4.70;99.90
18662;DHT22;61528;49.456;11.098;2024-01-10T06:54:11;-4.70;99.90
18662;DHT22;61528;49.456;11.098;2024-01-10T06:56:37;-4.70;99.90
18662;DHT22;61528;49.456;11.098;2024-01-10T06:59:02;-4.50;99.90
18662;DHT22;61528;49.456;11.098;2024-01-10T07:01:28;-4.60;99.90
18662;DHT22;61528;49.456;11.098;2024-01-10T07:03:55;-4.60;99.90
18662;DHT22;61528;49.456;11.098;2024-01-10T07:06:21;-4.60;99.90
18662;DHT22;61528;49.456;11.098;2024-01-10T07:08:49;-4.60;99.90
18662;DHT22;61528;49.456;11.098;2024-01-10T07:11:16;-4.50;99.90
18662;DHT22;61528;49.456;11.098;2024-01-10T07:13:42;-4.50;99.90
18662;DHT22;61528;49.456;11.098;2024-01-10T07:16:09;-4.50;99.90
18662;DHT22;61528;49.456;11.098;2024-01-10T07:18:35;-4.50;99.90
18662;DHT22;61528;49.456;11.098;2024-01-10T07:21:01;-4.40;99.90
18662;DHT22;61528;49.456;11.098;2024-01-10T07:23:27;-4.40;99.90
18662;DHT22;61528;49.456;11.098;2024-01-10T07:25:53;-4.40;99.90
18662;DHT22;61528;49.456;11.098;2024-01-10T07:28:19;-4.40;99.90
18662;DHT22;61528;49.456;11.098;2024-01-10T07:30:47;-4.40;99.90
18662;DHT22;61528;49.456;11.098;2024-01-10T07:33:13;-4.40;99.90
18662;DHT22;61528;49.456;11.098;2024-01-10T07:35:38;-4.30;99.90
18662;DHT22;61528;49.456;11.098;2024-01-10T07:38:05;-4.30;99.90
18662;DHT22;61528;49.456;11.098;2024-01-10T07:40:34;-4.40;99.90
18662;DHT22;61528;49.456;11.098;2024-01-10T07:43:00;-4.40;99.90
18662;DHT22;61528;49.456;11.098;2024-01-10T07:45:26;-4.30;99.90
18662;DHT22;61528;49.456;11.098;2024-01-10T07:47:52;-4.30;99.90
18662;DHT22;61528;49.456;11.098;2024-01-10T07:50:18;-4.30;99.90
18662;DHT22;61528;49.456;11.098;2024-01-10T07:52:45;-4.30;99.90
18662;DHT22;61528;49.456;11.098;2024-01-10T07:55:14;-4.30;99.90
18662;DHT22;61528;49.456;11.098;2024-01-10T07:57:40;-4.30;99.90
18662;DHT22;61528;49.456;11.098;2024-01-10T08:00:08;-4.20;99.90
18662;DHT22;61528;49.456;11.098;2024-01-10T08:02:39;-4.20;99.90
18662;DHT22;61528;49.456;11.098;2024-01-10T08:05:06;-4.20;99.90
18662;DHT22;61528;49.456;11.098;2024-01-10T08:07:37;-4.10;99.90
18662;DHT22;61528;49.456;11.098;2024-01-10T08:10:07;-4.10;99.90
18662;DHT22;61528;49.456;11.098;2024-01-10T08:12:39;-4.10;99.90
18662;DHT22;61528;49.456;11.098;2024-01-10T08:15:05;-4.10;99.90
18662;DHT22;61528;49.456;11.098;2024-01-10T08:17:34;-4.00;99.90
18662;DHT22;61528;49.456;11.098;2024-01-10T08:20:00;-3.90;99.90
18662;DHT22;61528;49.456;11.098;2024-01-10T08:22:29;-3.90;99.90
18662;DHT22;61528;49.456;11.098;2024-01-10T08:24:55;-3.90;99.90
18662;DHT22;61528;49.456;11.098;2024-01-10T08:27:21;-3.90;99.90
18662;DHT22;61528;49.456;11.098;2024-01-10T08:29:48;-3.90;99.90
18662;DHT22;61528;49.456;11.098;2024-01-10T08:32:14;-3.90;99.90
18662;DHT22;61528;49.456;11.098;2024-01-10T08:34:41;-3.90;99.90
18662;DHT22;61528;49.456;11.098;2024-01-10T08:37:07;-3.80;99.90
18662;DHT22;61528;49.456;11.098;2024-01-10T08:39:33;-3.80;99.90
18662;DHT22;61528;49.456;11.098;2024-01-10T08:41:59;-3.70;99.90
18662;DHT22;61528;49.456;11.098;2024-01-10T08:44:25;-3.70;99.90
18662;DHT22;61528;49.456;11.098;2024-01-10T08:46:51;-3.60;99.90
18662;DHT22;61528;49.456;11.098;2024-01-10T08:49:18;-3.70;99.90
18662;DHT22;61528;49.456;11.098;2024-01-10T08:51:44;-3.60;99.90
18662;DHT22;61528;49.456;11.098;2024-01-10T08:54:12;-3.60;99.90
18662;DHT22;61528;49.456;11.098;2024-01-10T08:56:45;-3.60;99.90
18662;DHT22;61528;49.456;11.098;2024-01-10T08:59:12;-3.40;99.90
18662;DHT22;61528;49.456;11.098;2024-01-10T09:01:38;-3.40;99.90
18662;DHT22;61528;49.456;11.098;2024-01-10T09:04:08;-3.30;99.90
18662;DHT22;61528;49.456;11.098;2024-01-10T09:06:34;-3.20;99.90
18662;DHT22;61528;49.456;11.098;2024-01-10T09:09:03;-3.30;99.90
18662;DHT22;61528;49.456;11.098;2024-01-10T09:11:29;-3.30;99.90
18662;DHT22;61528;49.456;11.098;2024-01-10T09:13:54;-3.30;99.90
18662;DHT22;61528;49.456;11.098;2024-01-10T09:16:20;-3.20;99.90
18662;DHT22;61528;49.456;11.098;2024-01-10T09:18:46;-3.20;99.90
18662;DHT22;61528;49.456;11.098;2024-01-10T09:21:14;-3.20;99.90
18662;DHT22;61528;49.456;11.098;2024-01-10T09:23:39;-3.20;99.90
18662;DHT22;61528;49.456;11.098;2024-01-10T09:26:05;-3.20;99.90
18662;DHT22;61528;49.456;11.098;2024-01-10T09:28:34;-3.10;99.90
18662;DHT22;61528;49.456;11.098;2024-01-10T09:31:00;-3.00;99.90
18662;DHT22;61528;49.456;11.098;2024-01-10T09:33:26;-2.90;99.90
18662;DHT22;61528;49.456;11.098;2024-01-10T09:35:52;-2.90;99.90
18662;DHT22;61528;49.456;11.098;2024-01-10T09:38:18;-2.80;99.90
18662;DHT22;61528;49.456;11.098;2024-01-10T09:40:44;-2.70;99.90
18662;DHT22;61528;49.456;11.098;2024-01-10T09:43:10;-2.70;99.90
18662;DHT22;61528;49.456;11.098;2024-01-10T09:45:37;-2.60;99.90
18662;DHT22;61528;49.456;11.098;2024-01-10T09:48:13;-2.50;99.90
18662;DHT22;61528;49.456;11.098;2024-01-10T09:50:41;-2.40;99.90
18662;DHT22;61528;49.456;11.098;2024-01-10T09:53:07;-2.40;99.90
18662;DHT22;61528;49.456;11.098;2024-01-10T09:55:37;-2.40;99.90
18662;DHT22;61528;49.456;11.098;2024-01-10T09:58:05;-2.30;99.90
18662;DHT22;61528;49.456;11.098;2024-01-10T10:00:33;-2.20;99.90
18662;DHT22;61528;49.456;11.098;2024-01-10T10:03:02;-2.20;99.90
18662;DHT22;61528;49.456;11.098;2024-01-10T10:05:30;-2.10;99.90
18662;DHT22;61528;49.456;11.098;2024-01-10T10:07:56;-2.00;99.90
18662;DHT22;61528;49.456;11.098;2024-01-10T10:10:23;-1.90;99.90
18662;DHT22;61528;49.456;11.098;2024-01-10T10:12:52;-1.80;99.90
18662;DHT22;61528;49.456;11.098;2024-01-10T10:15:20;-1.70;99.90
18662;DHT22;61528;49.456;11.098;2024-01-10T10:17:48;-1.70;99.90
18662;DHT22;61528;49.456;11.098;2024-01-10T10:20:23;-1.60;99.90
18662;DHT22;61528;49.456;11.098;2024-01-10T10:23:09;-1.50;99.90
18662;DHT22;61528;49.456;11.098;2024-01-10T10:25:45;-1.50;99.90
18662;DHT22;61528;49.456;11.098;2024-01-10T10:28:11;-1.40;99.90
18662;DHT22;61528;49.456;11.098;2024-01-10T10:30:38;-1.30;99.90
18662;DHT22;61528;49.456;11.098;2024-01-10T10:33:05;-1.20;99.90
18662;DHT22;61528;49.456;11.098;2024-01-10T10:35:34;-1.20;99.90
18662;DHT22;61528;49.456;11.098;2024-01-10T10:38:00;-1.10;99.90
18662;DHT22;61528;49.456;11.098;2024-01-10T10:40:26;-1.10;99.90
18662;DHT22;61528;49.456;11.098;2024-01-10T10:42:56;-1.00;99.90
18662;DHT22;61528;49.456;11.098;2024-01-10T10:48:02;-1.00;99.90
18662;DHT22;61528;49.456;11.098;2024-01-10T10:50:31;-0.90;99.90
18662;DHT22;61528;49.456;11.098;2024-01-10T10:52:59;-0.80;99.90
18662;DHT22;61528;49.456;11.098;2024-01-10T10:55:26;-0.70;99.90
18662;DHT22;61528;49.456;11.098;2024-01-10T10:57:54;-0.70;99.90
18662;DHT22;61528;49.456;11.098;2024-01-10T11:00:22;-0.70;99.90
18662;DHT22;61528;49.456;11.098;2024-01-10T11:02:56;-0.70;99.90
18662;DHT22;61528;49.456;11.098;2024-01-10T11:05:23;-0.60;99.90
18662;DHT22;61528;49.456;11.098;2024-01-10T11:07:50;-0.50;99.90
18662;DHT22;61528;49.456;11.098;2024-01-10T11:10:30;-0.50;99.90
18662;DHT22;61528;49.456;11.098;2024-01-10T11:21:50;-0.20;99.90
18662;DHT22;61528;49.456;11.098;2024-01-10T11:24:23;-0.10;99.90
18662;DHT22;61528;49.456;11.098;2024-01-10T11:26:49;0.00;99.90
18662;DHT22;61528;49.456;11.098;2024-01-10T11:29:15;0.10;99.90
18662;DHT22;61528;49.456;11.098;2024-01-10T11:31:43;0.30;99.90
18662;DHT22;61528;49.456;11.098;2024-01-10T11:34:16;0.30;99.90
18662;DHT22;61528;49.456;11.098;2024-01-10T11:39:28;0.60;99.90
18662;DHT22;61528;49.456;11.098;2024-01-10T11:41:54;0.70;99.90
18662;DHT22;61528;49.456;11.098;2024-01-10T11:59:29;1.90;99.50
18662;DHT22;61528;49.456;11.098;2024-01-10T12:14:17;3.20;97.60
18662;DHT22;61528;49.456;11.098;2024-01-10T14:19:30;5.70;71.30
18662;DHT22;61528;49.456;11.098;2024-01-10T14:21:56;5.50;74.40
18662;DHT22;61528;49.456;11.098;2024-01-10T14:24:22;5.30;74.40
18662;DHT22;61528;49.456;11.098;2024-01-10T14:26:47;5.00;75.70
18662;DHT22;61528;49.456;11.098;2024-01-10T14:29:13;4.70;76.50
18662;DHT22;61528;49.456;11.098;2024-01-10T14:31:39;4.50;77.90
18662;DHT22;61528;49.456;11.098;2024-01-10T14:34:05;4.40;77.60
18662;DHT22;61528;49.456;11.098;2024-01-10T14:36:32;4.30;77.70
18662;DHT22;61528;49.456;11.098;2024-01-10T14:38:57;4.20;78.30
18662;DHT22;61528;49.456;11.098;2024-01-10T16:02:24;1.70;93.70
18662;DHT22;61528;49.456;11.098;2024-01-10T16:04:50;1.70;94.00
18662;DHT22;61528;49.456;11.098;2024-01-10T16:07:16;1.70;94.10
18662;DHT22;61528;49.456;11.098;2024-01-10T16:09:42;1.60;94.30
18662;DHT22;61528;49.456;11.098;2024-01-10T16:12:08;1.60;94.50
18662;DHT22;61528;49.456;11.098;2024-01-10T16:14:33;1.50;94.60
18662;DHT22;61528;49.456;11.098;2024-01-10T16:17:00;1.50;94.90
18662;DHT22;61528;49.456;11.098;2024-01-10T16:19:27;1.30;95.20
18662;DHT22;61528;49.456;11.098;2024-01-10T16:21:53;1.30;95.40
18662;DHT22;61528;49.456;11.098;2024-01-10T16:26:46;1.10;95.90
18662;DHT22;61528;49.456;11.098;2024-01-10T16:29:12;1.10;96.40
18662;DHT22;61528;49.456;11.098;2024-01-10T16:31:38;1.00;96.80
18662;DHT22;61528;49.456;11.098;2024-01-10T16:34:03;1.00;97.00
18662;DHT22;61528;49.456;11.098;2024-01-10T16:36:29;1.00;97.20
18662;DHT22;61528;49.456;11.098;2024-01-10T16:38:55;0.90;97.90
18662;DHT22;61528;49.456;11.098;2024-01-10T16:41:21;0.90;98.40
18662;DHT22;61528;49.456;11.098;2024-01-10T16:43:47;1.00;98.50
18662;DHT22;61528;49.456;11.098;2024-01-10T16:46:13;0.90;98.20
18662;DHT22;61528;49.456;11.098;2024-01-10T16:48:39;0.90;98.20
18662;DHT22;61528;49.456;11.098;2024-01-10T16:51:05;0.80;98.20
18662;DHT22;61528;49.456;11.098;2024-01-10T16:53:32;0.80;98.40
